createdAt,value
2022-08-24T00:02:04.970Z,101788.06
2022-08-24T00:04:32.447Z,101783.88
2022-08-24T00:07:00.566Z,101782.22
2022-08-24T00:09:27.154Z,101782.22
2022-08-24T00:11:53.779Z,101785.56
2022-08-24T00:14:20.351Z,101783.88
2022-08-24T00:16:47.233Z,101777.78
2022-08-24T00:19:14.172Z,101781.66
2022-08-24T00:21:40.708Z,101785.00
2022-08-24T00:24:07.298Z,101781.13
2022-08-24T00:26:35.351Z,101778.91
2022-08-24T00:29:05.522Z,101776.41
2022-08-24T00:31:34.328Z,101780.03
2022-08-24T00:34:00.952Z,101784.44
2022-08-24T00:36:27.545Z,101788.88
2022-08-24T00:38:54.355Z,101776.41
2022-08-24T00:41:21.451Z,101782.22
2022-08-24T00:43:58.416Z,101778.38
2022-08-24T00:46:36.376Z,101784.44
2022-08-24T00:49:08.024Z,101782.22
2022-08-24T00:51:43.563Z,101790.53
2022-08-24T00:54:13.932Z,101786.66
2022-08-24T00:56:49.504Z,101793.03
2022-08-24T00:59:24.133Z,101799.13
2022-08-24T01:01:52.295Z,101797.19
2022-08-24T01:04:29.177Z,101795.50
2022-08-24T01:06:57.807Z,101793.00
2022-08-24T01:09:24.438Z,101778.88
2022-08-24T01:11:51.577Z,101783.03
2022-08-24T01:14:20.740Z,101786.06
2022-08-24T01:17:05.959Z,101787.19
2022-08-24T01:19:44.924Z,101777.78
2022-08-24T01:22:20.899Z,101787.16
2022-08-24T01:24:48.077Z,101786.63
2022-08-24T01:27:15.580Z,101787.72
2022-08-24T01:29:45.845Z,101786.03
2022-08-24T01:32:13.848Z,101791.59
2022-08-24T01:34:40.483Z,101786.06
2022-08-24T01:37:11.028Z,101791.59
2022-08-24T01:39:42.545Z,101790.75
2022-08-24T01:42:10.048Z,101792.44
2022-08-24T01:44:39.556Z,101798.22
2022-08-24T01:47:07.891Z,101785.53
2022-08-24T01:49:38.035Z,101784.59
2022-08-24T01:52:06.806Z,101781.25
2022-08-24T01:54:34.341Z,101785.97
2022-08-24T01:57:02.355Z,101784.81
2022-08-24T01:59:29.192Z,101787.06
2022-08-24T02:02:03.356Z,101800.09
2022-08-24T02:04:30.093Z,101794.53
2022-08-24T02:06:56.672Z,101792.06
2022-08-24T02:09:23.216Z,101792.00
2022-08-24T02:11:55.183Z,101789.78
2022-08-24T02:14:22.271Z,101793.91
2022-08-24T02:16:49.154Z,101801.41
2022-08-24T02:19:15.788Z,101805.84
2022-08-24T02:21:42.374Z,101800.25
2022-08-24T02:24:08.943Z,101798.81
2022-08-24T02:26:35.528Z,101796.31
2022-08-24T02:29:03.593Z,101800.72
2022-08-24T02:31:30.701Z,101801.88
2022-08-24T02:33:57.397Z,101787.69
2022-08-24T02:36:26.159Z,101793.47
2022-08-24T02:38:54.523Z,101799.53
2022-08-24T02:41:22.390Z,101806.41
2022-08-24T02:43:49.733Z,101803.31
2022-08-24T02:46:21.833Z,101806.13
2022-08-24T02:48:56.521Z,101807.22
2022-08-24T02:51:41.587Z,101811.56
2022-08-24T02:54:12.273Z,101805.78
2022-08-24T02:56:38.778Z,101802.22
2022-08-24T02:59:05.463Z,101801.34
2022-08-24T03:01:32.049Z,101808.81
2022-08-24T03:03:58.976Z,101806.59
2022-08-24T03:06:25.532Z,101807.63
2022-08-24T03:08:56.259Z,101798.75
2022-08-24T03:11:27.729Z,101800.06
2022-08-24T03:13:57.564Z,101801.22
2022-08-24T03:16:24.097Z,101801.53
2022-08-24T03:18:51.518Z,101793.16
2022-08-24T03:21:18.203Z,101804.72
2022-08-24T03:23:44.817Z,101804.09
2022-08-24T03:26:12.235Z,101807.94
2022-08-24T03:28:39.031Z,101805.63
2022-08-24T03:31:06.551Z,101806.81
2022-08-24T03:33:33.631Z,101804.59
2022-08-24T03:36:00.343Z,101803.47
2022-08-24T03:38:27.475Z,101807.63
2022-08-24T03:40:54.440Z,101813.69
2022-08-24T03:43:39.538Z,101798.88
2022-08-24T03:46:09.023Z,101794.91
2022-08-24T03:48:36.303Z,101804.00
2022-08-24T03:51:03.430Z,101795.13
2022-08-24T03:53:29.988Z,101798.88
2022-08-24T03:55:56.567Z,101795.63
2022-08-24T03:58:23.085Z,101799.28
2022-08-24T04:00:50.098Z,101796.75
2022-08-24T04:03:16.725Z,101802.00
2022-08-24T04:05:43.367Z,101799.59
2022-08-24T04:08:10.888Z,101799.81
2022-08-24T04:10:38.271Z,101796.66
2022-08-24T04:13:06.831Z,101806.59
2022-08-24T04:15:33.432Z,101802.22
2022-08-24T04:18:02.183Z,101805.22
2022-08-24T04:20:28.819Z,101806.63
2022-08-24T04:22:55.323Z,101804.41
2022-08-24T04:25:25.059Z,101803.59
2022-08-24T04:27:52.323Z,101811.91
2022-08-24T04:30:20.583Z,101813.22
2022-08-24T04:32:47.117Z,101817.94
2022-08-24T04:35:13.948Z,101824.91
2022-08-24T04:37:40.968Z,101822.00
2022-08-24T04:40:09.009Z,101820.38
2022-08-24T04:42:37.383Z,101813.03
2022-08-24T04:45:04.530Z,101816.91
2022-08-24T04:47:31.108Z,101819.28
2022-08-24T04:49:57.742Z,101818.28
2022-08-24T04:52:24.273Z,101818.16
2022-08-24T04:54:50.847Z,101814.09
2022-08-24T04:57:18.488Z,101821.88
2022-08-24T04:59:45.694Z,101827.41
2022-08-24T05:02:12.658Z,101827.88
2022-08-24T05:04:39.363Z,101828.47
2022-08-24T05:07:06.399Z,101831.72
2022-08-24T05:09:33.030Z,101829.38
2022-08-24T05:12:00.146Z,101832.38
2022-08-24T05:14:29.011Z,101836.88
2022-08-24T05:16:56.178Z,101832.41
2022-08-24T05:19:23.774Z,101834.94
2022-08-24T05:21:50.744Z,101840.97
2022-08-24T05:24:18.304Z,101849.38
2022-08-24T05:26:45.537Z,101850.50
2022-08-24T05:29:12.531Z,101844.38
2022-08-24T05:31:43.198Z,101864.59
2022-08-24T05:34:09.864Z,101860.50
2022-08-24T05:36:38.445Z,101861.06
2022-08-24T05:39:11.383Z,101862.78
2022-08-24T05:41:43.964Z,101864.94
2022-08-24T05:44:12.714Z,101867.75
2022-08-24T05:46:39.322Z,101862.94
2022-08-24T05:49:06.380Z,101861.72
2022-08-24T05:51:33.125Z,101867.94
2022-08-24T05:54:00.754Z,101873.44
2022-08-24T05:56:31.400Z,101871.84
2022-08-24T05:58:58.698Z,101869.41
2022-08-24T06:01:26.703Z,101886.34
2022-08-24T06:03:55.027Z,101881.66
2022-08-24T06:06:23.545Z,101885.81
2022-08-24T06:08:53.689Z,101879.75
2022-08-24T06:11:29.866Z,101885.88
2022-08-24T06:14:00.622Z,101880.16
2022-08-24T06:16:27.377Z,101873.28
2022-08-24T06:18:54.212Z,101875.50
2022-08-24T06:21:28.420Z,101885.03
2022-08-24T06:23:56.887Z,101882.88
2022-08-24T06:26:42.115Z,101885.66
2022-08-24T06:29:09.308Z,101878.50
2022-08-24T06:31:41.812Z,101882.44
2022-08-24T06:34:10.176Z,101878.56
2022-08-24T06:36:37.182Z,101875.00
2022-08-24T06:39:06.944Z,101886.06
2022-08-24T06:41:36.764Z,101889.13
2022-08-24T06:44:03.871Z,101888.31
2022-08-24T06:46:32.849Z,101888.59
2022-08-24T06:48:59.748Z,101888.28
2022-08-24T06:51:26.328Z,101889.66
2022-08-24T06:53:56.130Z,101893.75
2022-08-24T06:56:23.164Z,101894.28
2022-08-24T06:58:50.306Z,101886.78
2022-08-24T07:01:20.483Z,101889.53
2022-08-24T07:03:47.384Z,101898.44
2022-08-24T07:06:15.556Z,101894.50
2022-08-24T07:08:43.194Z,101891.63
2022-08-24T07:11:11.189Z,101891.56
2022-08-24T07:13:37.894Z,101887.13
2022-08-24T07:16:05.169Z,101898.44
2022-08-24T07:18:32.362Z,101912.50
2022-08-24T07:21:05.091Z,101916.28
2022-08-24T07:23:42.168Z,101917.34
2022-08-24T07:26:20.969Z,101921.41
2022-08-24T07:28:49.836Z,101913.88
2022-08-24T07:31:16.544Z,101911.00
2022-08-24T07:33:43.171Z,101915.13
2022-08-24T07:36:09.889Z,101918.84
2022-08-24T07:38:39.312Z,101915.16
2022-08-24T07:41:33.727Z,101927.13
2022-08-24T07:43:52.872Z,101925.75
2022-08-24T07:46:19.522Z,101932.41
2022-08-24T07:48:46.668Z,101930.56
2022-08-24T07:51:16.115Z,101929.28
2022-08-24T07:53:53.687Z,101934.97
2022-08-24T07:56:20.660Z,101937.75
2022-08-24T07:58:48.347Z,101936.44
2022-08-24T08:01:15.558Z,101946.56
2022-08-24T08:03:42.106Z,101940.75
2022-08-24T08:06:16.108Z,101940.41
2022-08-24T08:08:43.184Z,101945.16
2022-08-24T08:11:10.538Z,101943.22
2022-08-24T08:13:37.737Z,101950.53
2022-08-24T08:16:08.406Z,101947.66
2022-08-24T08:18:36.145Z,101950.59
2022-08-24T08:21:26.431Z,101948.56
2022-08-24T08:24:11.699Z,101946.97
2022-08-24T08:26:39.089Z,101955.28
2022-08-24T08:29:06.137Z,101954.13
2022-08-24T08:31:34.272Z,101957.25
2022-08-24T08:34:01.677Z,101956.91
2022-08-24T08:36:28.410Z,101958.34
2022-08-24T08:38:55.178Z,101954.81
2022-08-24T08:41:56.350Z,101955.63
2022-08-24T08:44:52.442Z,101959.09
2022-08-24T08:47:46.614Z,101956.06
2022-08-24T08:50:21.930Z,101964.97
2022-08-24T08:53:13.842Z,101964.34
2022-08-24T08:55:48.485Z,101967.91
2022-08-24T08:58:59.565Z,101965.44
2022-08-24T09:01:34.996Z,101964.09
2022-08-24T09:04:44.736Z,101969.16
2022-08-24T09:07:55.373Z,101958.19
2022-08-24T09:10:40.766Z,101957.34
2022-08-24T09:13:30.321Z,101957.56
2022-08-24T09:16:13.149Z,101962.44
2022-08-24T09:19:07.144Z,101957.34
2022-08-24T09:22:08.411Z,101956.41
2022-08-24T09:24:50.414Z,101955.78
2022-08-24T09:27:54.664Z,101962.28
2022-08-24T09:30:23.809Z,101951.84
2022-08-24T09:33:06.723Z,101949.97
2022-08-24T09:35:50.073Z,101955.75
2022-08-24T09:38:47.592Z,101944.94
2022-08-24T09:41:51.204Z,101945.75
2022-08-24T09:44:39.512Z,101945.84
2022-08-24T09:47:35.507Z,101944.81
2022-08-24T09:50:20.803Z,101941.84
2022-08-24T09:53:11.063Z,101953.44
2022-08-24T09:56:27.952Z,101938.66
2022-08-24T09:58:57.859Z,101940.97
2022-08-24T10:01:39.408Z,101939.50
2022-08-24T10:04:25.405Z,101940.59
2022-08-24T10:07:13.913Z,101941.81
2022-08-24T10:09:50.233Z,101936.59
2022-08-24T10:12:33.919Z,101934.75
2022-08-24T10:15:14.853Z,101930.69
2022-08-24T10:18:04.490Z,101930.81
2022-08-24T10:21:04.436Z,101938.25
2022-08-24T10:23:56.496Z,101934.66
2022-08-24T10:26:29.160Z,101929.78
2022-08-24T10:29:26.755Z,101925.84
2022-08-24T10:31:59.899Z,101927.06
2022-08-24T10:35:02.309Z,101922.81
2022-08-24T10:37:47.591Z,101915.09
2022-08-24T10:40:23.207Z,101927.78
2022-08-24T10:43:29.583Z,101922.88
2022-08-24T10:46:05.411Z,101926.81
2022-08-24T10:48:33.459Z,101923.03
2022-08-24T10:51:10.359Z,101922.03
2022-08-24T10:53:37.195Z,101925.38
2022-08-24T10:56:11.972Z,101919.91
2022-08-24T10:58:43.745Z,101921.72
2022-08-24T11:01:19.840Z,101926.16
2022-08-24T11:04:00.816Z,101919.59
2022-08-24T11:06:40.221Z,101921.09
2022-08-24T11:09:19.916Z,101921.59
2022-08-24T11:11:49.370Z,101921.94
2022-08-24T11:14:15.852Z,101920.66
2022-08-24T11:16:45.815Z,101925.53
2022-08-24T11:19:32.611Z,101923.06
2022-08-24T11:22:05.589Z,101924.22
2022-08-24T11:24:44.036Z,101918.13
2022-08-24T11:27:16.280Z,101926.88
2022-08-24T11:29:52.165Z,101923.72
2022-08-24T11:32:43.180Z,101921.81
2022-08-24T11:35:23.785Z,101919.75
2022-08-24T11:37:52.839Z,101919.91
2022-08-24T11:40:24.936Z,101917.28
2022-08-24T11:43:19.580Z,101915.97
2022-08-24T11:46:18.639Z,101918.31
2022-08-24T11:49:02.975Z,101913.88
2022-08-24T11:51:55.885Z,101919.81
2022-08-24T11:54:34.108Z,101919.31
2022-08-24T11:57:09.446Z,101922.63
2022-08-24T12:00:15.294Z,101923.28
2022-08-24T12:03:00.793Z,101922.94
2022-08-24T12:06:18.166Z,101926.41
2022-08-24T12:08:53.516Z,101919.28
2022-08-24T12:11:37.613Z,101922.94
2022-08-24T12:14:14.257Z,101919.78
2022-08-24T12:16:57.829Z,101910.06
2022-08-24T12:19:30.134Z,101904.63
2022-08-24T12:22:04.927Z,101914.81
2022-08-24T12:24:41.163Z,101919.63
2022-08-24T12:27:18.112Z,101919.28
2022-08-24T12:29:52.258Z,101910.25
2022-08-24T12:32:27.135Z,101910.56
2022-08-24T12:35:01.389Z,101916.63
2022-08-24T12:37:36.185Z,101907.41
2022-08-24T12:40:08.792Z,101901.97
2022-08-24T12:42:51.323Z,101907.06
2022-08-24T12:45:20.981Z,101914.34
2022-08-24T12:48:04.218Z,101911.72
2022-08-24T12:50:42.942Z,101915.31
2022-08-24T12:53:17.772Z,101909.34
2022-08-24T12:55:56.141Z,101904.09
2022-08-24T12:58:35.967Z,101901.44
2022-08-24T13:01:11.663Z,101909.53
2022-08-24T13:03:41.622Z,101910.00
2022-08-24T13:06:17.395Z,101913.13
2022-08-24T13:08:47.111Z,101912.47
2022-08-24T13:11:34.352Z,101928.69
2022-08-24T13:14:03.934Z,101905.41
2022-08-24T13:16:56.391Z,101905.09
2022-08-24T13:19:22.873Z,101900.97
2022-08-24T13:22:16.104Z,101904.75
2022-08-24T13:24:43.999Z,101903.59
2022-08-24T13:27:13.320Z,101907.19
2022-08-24T13:30:01.912Z,101903.72
2022-08-24T13:32:38.412Z,101903.47
2022-08-24T13:35:31.613Z,101900.19
2022-08-24T13:38:23.401Z,101890.44
2022-08-24T13:40:56.893Z,101900.03
2022-08-24T13:43:33.770Z,101899.69
2022-08-24T13:46:19.050Z,101894.50
2022-08-24T13:49:12.407Z,101886.56
2022-08-24T13:51:50.083Z,101892.03
2022-08-24T13:54:50.121Z,101883.13
2022-08-24T13:57:27.279Z,101884.28
2022-08-24T14:00:12.845Z,101895.81
2022-08-24T14:02:58.270Z,101891.06
2022-08-24T14:05:38.537Z,101878.94
2022-08-24T14:08:24.141Z,101886.00
2022-08-24T14:11:12.081Z,101879.53
2022-08-24T14:14:04.327Z,101886.50
2022-08-24T14:17:20.177Z,101884.00
2022-08-24T14:20:22.276Z,101891.38
2022-08-24T14:23:24.140Z,101881.94
2022-08-24T14:25:51.762Z,101876.84
2022-08-24T14:28:21.272Z,101879.63
2022-08-24T14:30:50.258Z,101881.03
2022-08-24T14:33:31.399Z,101878.66
2022-08-24T14:36:18.650Z,101870.91
2022-08-24T14:39:04.052Z,101864.56
2022-08-24T14:42:07.411Z,101880.59
2022-08-24T14:44:53.135Z,101872.34
2022-08-24T14:47:25.347Z,101874.66
2022-08-24T14:50:09.207Z,101869.53
2022-08-24T14:52:57.209Z,101871.63
2022-08-24T14:55:52.947Z,101874.47
2022-08-24T14:58:39.318Z,101865.34
2022-08-24T15:01:14.936Z,101863.22
2022-08-24T15:03:50.279Z,101874.00
2022-08-24T15:06:47.873Z,101864.91
2022-08-24T15:09:35.425Z,101868.06
2022-08-24T15:12:20.427Z,101869.03
2022-08-24T15:14:53.422Z,101855.81
2022-08-24T15:17:31.628Z,101855.13
2022-08-24T15:20:15.574Z,101849.88
2022-08-24T15:23:07.345Z,101857.50
2022-08-24T15:25:48.436Z,101863.25
2022-08-24T15:28:27.900Z,101850.69
2022-08-24T15:31:01.121Z,101856.00
2022-08-24T15:33:30.135Z,101854.38
2022-08-24T15:36:10.903Z,101860.19
2022-08-24T15:38:40.256Z,101847.47
2022-08-24T15:41:20.758Z,101851.31
2022-08-24T15:43:57.063Z,101851.13
2022-08-24T15:46:32.602Z,101845.72
2022-08-24T15:49:08.429Z,101849.38
2022-08-24T15:51:54.971Z,101840.81
2022-08-24T15:54:25.421Z,101844.75
2022-08-24T15:56:59.390Z,101843.78
2022-08-24T15:59:41.084Z,101837.50
2022-08-24T16:02:29.791Z,101843.94
2022-08-24T16:05:15.923Z,101846.06
2022-08-24T16:08:01.716Z,101838.84
2022-08-24T16:10:43.492Z,101843.94
2022-08-24T16:13:19.565Z,101844.28
2022-08-24T16:16:13.165Z,101849.22
2022-08-24T16:18:53.803Z,101856.31
2022-08-24T16:21:37.840Z,101848.41
2022-08-24T16:24:23.262Z,101847.25
2022-08-24T16:26:58.664Z,101854.31
2022-08-24T16:29:37.560Z,101858.13
2022-08-24T16:32:21.614Z,101856.81
2022-08-24T16:35:09.199Z,101857.28
2022-08-24T16:37:36.308Z,101858.28
2022-08-24T16:40:04.570Z,101855.94
2022-08-24T16:42:31.747Z,101868.50
2022-08-24T16:44:59.259Z,101859.75
2022-08-24T16:47:27.562Z,101866.00
2022-08-24T16:49:54.594Z,101862.88
2022-08-24T16:52:21.576Z,101862.00
2022-08-24T16:54:54.465Z,101857.91
2022-08-24T16:57:28.083Z,101859.88
2022-08-24T16:59:55.027Z,101863.97
2022-08-24T17:02:23.107Z,101854.69
2022-08-24T17:04:50.084Z,101859.31
2022-08-24T17:07:25.542Z,101856.84
2022-08-24T17:09:52.415Z,101858.94
2022-08-24T17:12:19.345Z,101860.06
2022-08-24T17:14:46.366Z,101860.84
2022-08-24T17:17:16.900Z,101865.97
2022-08-24T17:19:47.828Z,101861.66
2022-08-24T17:22:16.505Z,101859.63
2022-08-24T17:24:43.936Z,101864.41
2022-08-24T17:27:12.171Z,101865.88
2022-08-24T17:29:39.176Z,101862.94
2022-08-24T17:32:06.177Z,101848.34
2022-08-24T17:34:32.805Z,101866.19
2022-08-24T17:37:00.160Z,101867.81
2022-08-24T17:39:26.803Z,101867.94
2022-08-24T17:41:54.901Z,101868.94
2022-08-24T17:44:25.808Z,101871.38
2022-08-24T17:46:55.475Z,101875.56
2022-08-24T17:49:22.400Z,101871.88
2022-08-24T17:51:49.757Z,101877.94
2022-08-24T17:54:17.950Z,101883.13
2022-08-24T17:56:46.611Z,101882.00
2022-08-24T17:59:20.853Z,101885.94
2022-08-24T18:01:50.220Z,101880.56
2022-08-24T18:04:17.517Z,101890.31
2022-08-24T18:06:44.171Z,101899.00
2022-08-24T18:09:17.445Z,101892.59
2022-08-24T18:11:44.059Z,101893.31
2022-08-24T18:14:10.647Z,101891.81
2022-08-24T18:16:37.301Z,101898.22
2022-08-24T18:19:04.437Z,101895.31
2022-08-24T18:21:31.113Z,101893.44
2022-08-24T18:23:58.340Z,101898.00
2022-08-24T18:26:29.207Z,101911.19
2022-08-24T18:29:03.753Z,101911.81
2022-08-24T18:31:31.664Z,101921.00
2022-08-24T18:33:58.333Z,101925.88
2022-08-24T18:36:24.958Z,101926.34
2022-08-24T18:38:52.641Z,101928.06
2022-08-24T18:41:21.633Z,101927.97
2022-08-24T18:43:49.110Z,101926.09
2022-08-24T18:46:16.634Z,101920.75
2022-08-24T18:48:43.885Z,101924.53
2022-08-24T18:51:15.006Z,101922.34
2022-08-24T18:53:42.256Z,101930.47
2022-08-24T18:56:12.546Z,101937.88
2022-08-24T18:58:40.273Z,101934.84
2022-08-24T19:01:08.030Z,101939.09
2022-08-24T19:03:35.680Z,101940.28
2022-08-24T19:06:03.275Z,101932.88
2022-08-24T19:08:30.416Z,101937.56
2022-08-24T19:10:57.631Z,101944.31
2022-08-24T19:13:24.803Z,101941.13
2022-08-24T19:15:52.515Z,101941.59
2022-08-24T19:18:21.816Z,101943.81
2022-08-24T19:20:52.789Z,101948.41
2022-08-24T19:23:32.930Z,101944.31
2022-08-24T19:26:01.748Z,101949.94
2022-08-24T19:28:29.184Z,101935.66
2022-08-24T19:31:02.877Z,101937.69
2022-08-24T19:33:35.866Z,101943.53
2022-08-24T19:36:02.826Z,101951.34
2022-08-24T19:38:29.574Z,101951.63
2022-08-24T19:40:57.818Z,101957.84
2022-08-24T19:43:29.391Z,101955.25
2022-08-24T19:46:05.478Z,101961.47
2022-08-24T19:48:34.583Z,101954.94
2022-08-24T19:51:03.890Z,101961.25
2022-08-24T19:53:33.791Z,101957.25
2022-08-24T19:56:00.816Z,101962.25
2022-08-24T19:58:27.308Z,101957.22
2022-08-24T20:01:02.316Z,101965.00
2022-08-24T20:03:28.954Z,101960.72
2022-08-24T20:05:56.356Z,101964.69
2022-08-24T20:08:22.969Z,101964.06
2022-08-24T20:10:49.845Z,101961.38
2022-08-24T20:13:16.518Z,101953.09
2022-08-24T20:15:43.729Z,101964.16
2022-08-24T20:18:10.700Z,101963.03
2022-08-24T20:20:37.746Z,101962.78
2022-08-24T20:23:06.421Z,101968.41
2022-08-24T20:25:37.370Z,101967.78
2022-08-24T20:28:28.370Z,101967.56
2022-08-24T20:30:53.071Z,101971.78
2022-08-24T20:33:23.797Z,101974.28
2022-08-24T20:35:51.004Z,101978.94
2022-08-24T20:38:20.021Z,101983.47
2022-08-24T20:40:47.636Z,101979.34
2022-08-24T20:43:14.675Z,101979.03
2022-08-24T20:45:41.735Z,101977.94
2022-08-24T20:48:12.117Z,101974.84
2022-08-24T20:50:39.490Z,101982.63
2022-08-24T20:53:06.333Z,101982.13
2022-08-24T20:55:33.040Z,101979.97
2022-08-24T20:58:03.051Z,101979.13
2022-08-24T21:00:30.670Z,101982.44
2022-08-24T21:02:58.191Z,101974.41
2022-08-24T21:05:25.184Z,101978.28
2022-08-24T21:07:52.162Z,101983.84
2022-08-24T21:10:26.780Z,101971.69
2022-08-24T21:12:54.223Z,101977.78
2022-08-24T21:15:22.465Z,101976.94
2022-08-24T21:17:49.417Z,101981.41
2022-08-24T21:20:16.529Z,101976.94
2022-08-24T21:22:43.146Z,101979.47
2022-08-24T21:25:10.041Z,101978.09
2022-08-24T21:27:39.112Z,101980.59
2022-08-24T21:30:08.378Z,101981.41
2022-08-24T21:32:53.521Z,101982.25
2022-08-24T21:35:20.179Z,101985.59
2022-08-24T21:37:46.776Z,101983.09
2022-08-24T21:40:14.100Z,101983.66
2022-08-24T21:42:40.702Z,101984.47
2022-08-24T21:45:07.940Z,101985.59
2022-08-24T21:47:34.810Z,101982.28
2022-08-24T21:50:01.442Z,101986.13
2022-08-24T21:52:27.989Z,101981.16
2022-08-24T21:54:55.119Z,101977.84
2022-08-24T21:57:22.210Z,101990.31
2022-08-24T21:59:49.223Z,101983.38
2022-08-24T22:02:16.932Z,101985.56
2022-08-24T22:04:56.126Z,101991.69
2022-08-24T22:07:25.247Z,101995.00
2022-08-24T22:09:51.870Z,101988.31
2022-08-24T22:12:18.810Z,101987.81
2022-08-24T22:14:45.350Z,101980.53
2022-08-24T22:17:12.095Z,101974.69
2022-08-24T22:19:39.228Z,101986.66
2022-08-24T22:22:05.895Z,101980.25
2022-08-24T22:24:32.753Z,101983.06
2022-08-24T22:26:59.577Z,101976.66
2022-08-24T22:29:26.289Z,101976.38
2022-08-24T22:31:52.982Z,101976.38
2022-08-24T22:34:21.282Z,101969.16
2022-08-24T22:36:49.035Z,101971.72
2022-08-24T22:39:15.785Z,101963.94
2022-08-24T22:41:42.540Z,101958.66
2022-08-24T22:44:21.613Z,101968.34
2022-08-24T22:46:59.812Z,101961.63
2022-08-24T22:49:29.719Z,101961.91
2022-08-24T22:51:57.271Z,101961.63
2022-08-24T22:54:25.472Z,101956.94
2022-08-24T22:56:54.302Z,101951.13
2022-08-24T22:59:29.515Z,101952.22
2022-08-24T23:01:57.565Z,101956.94
2022-08-24T23:04:31.280Z,101958.31
2022-08-24T23:06:58.775Z,101960.81
2022-08-24T23:09:25.465Z,101958.03
2022-08-24T23:11:52.423Z,101958.88
2022-08-24T23:14:19.753Z,101960.50
2022-08-24T23:16:50.369Z,101957.19
2022-08-24T23:19:38.379Z,101959.38
2022-08-24T23:22:06.287Z,101961.34
2022-08-24T23:24:33.584Z,101963.84
2022-08-24T23:27:01.808Z,101962.69
2022-08-24T23:29:28.332Z,101968.25
2022-08-24T23:31:54.902Z,101965.47
2022-08-24T23:34:22.242Z,101965.47
2022-08-24T23:36:50.090Z,101960.75
2022-08-24T23:39:17.200Z,101961.84
2022-08-24T23:41:46.282Z,101967.66
2022-08-24T23:44:19.538Z,101973.22
2022-08-24T23:46:46.725Z,101969.59
2022-08-24T23:49:15.663Z,101974.25
2022-08-24T23:51:42.621Z,101965.41
2022-08-24T23:54:10.900Z,101968.16
2022-08-24T23:56:40.915Z,101961.50
2022-08-24T23:59:16.727Z,101963.69
